createdAt,value
2024-05-09T00:00:41.226Z,99.90
2024-05-09T00:03:10.745Z,99.90
2024-05-09T00:05:41.144Z,99.90
2024-05-09T00:08:09.512Z,99.90
2024-05-09T00:10:39.205Z,99.90
2024-05-09T00:13:08.182Z,99.90
2024-05-09T00:15:36.151Z,99.90
2024-05-09T00:18:05.229Z,99.90
2024-05-09T00:20:38.280Z,99.90
2024-05-09T00:23:12.520Z,99.90
2024-05-09T00:25:44.285Z,99.90
2024-05-09T00:28:12.693Z,99.90
2024-05-09T00:30:40.072Z,99.90
2024-05-09T00:33:08.970Z,99.90
2024-05-09T00:35:37.759Z,99.90
2024-05-09T00:38:05.250Z,99.90
2024-05-09T00:40:41.913Z,99.90
2024-05-09T00:43:12.561Z,99.90
2024-05-09T00:45:40.995Z,99.90
2024-05-09T00:48:10.150Z,99.90
2024-05-09T00:50:41.666Z,99.90
2024-05-09T00:53:14.190Z,99.90
2024-05-09T00:55:41.946Z,99.90
2024-05-09T00:58:12.021Z,99.90
2024-05-09T01:00:41.276Z,99.90
2024-05-09T01:03:12.024Z,99.90
2024-05-09T01:05:42.151Z,99.90
2024-05-09T01:08:10.704Z,99.90
2024-05-09T01:10:38.377Z,99.90
2024-05-09T01:13:06.838Z,99.90
2024-05-09T01:15:35.683Z,99.90
2024-05-09T01:18:12.612Z,99.90
2024-05-09T01:20:43.704Z,99.90
2024-05-09T01:23:15.164Z,99.90
2024-05-09T01:25:44.577Z,99.90
2024-05-09T01:28:12.059Z,99.90
2024-05-09T01:30:39.248Z,99.90
2024-05-09T01:33:08.871Z,99.90
2024-05-09T01:35:38.936Z,99.90
2024-05-09T01:38:06.983Z,99.90
2024-05-09T01:40:38.551Z,99.90
2024-05-09T01:43:08.839Z,99.90
2024-05-09T01:45:36.859Z,99.90
2024-05-09T01:48:04.760Z,99.90
2024-05-09T01:50:38.471Z,99.90
2024-05-09T01:53:14.500Z,99.90
2024-05-09T01:55:43.160Z,99.90
2024-05-09T01:58:10.549Z,99.90
2024-05-09T02:00:41.343Z,99.90
2024-05-09T02:03:14.380Z,99.90
2024-05-09T02:05:45.000Z,99.90
2024-05-09T02:08:18.101Z,99.90
2024-05-09T02:10:47.264Z,99.90
2024-05-09T02:13:15.176Z,99.90
2024-05-09T02:15:42.571Z,99.90
2024-05-09T02:18:10.423Z,99.90
2024-05-09T02:20:39.800Z,99.90
2024-05-09T02:23:08.510Z,99.90
2024-05-09T02:25:35.723Z,99.90
2024-05-09T02:28:02.901Z,99.90
2024-05-09T02:30:38.663Z,99.90
2024-05-09T02:33:10.377Z,99.90
2024-05-09T02:35:39.466Z,99.90
2024-05-09T02:38:06.627Z,99.90
2024-05-09T02:40:37.705Z,99.90
2024-05-09T02:43:08.274Z,99.90
2024-05-09T02:45:36.402Z,99.90
2024-05-09T02:48:04.140Z,99.90
2024-05-09T02:50:37.847Z,99.90
2024-05-09T02:53:14.175Z,99.90
2024-05-09T02:55:42.450Z,99.90
2024-05-09T02:58:10.508Z,99.90
2024-05-09T03:00:41.147Z,99.90
2024-05-09T03:03:13.137Z,99.90
2024-05-09T03:05:45.720Z,99.90
2024-05-09T03:08:13.244Z,99.90
2024-05-09T03:10:40.490Z,99.90
2024-05-09T03:13:09.193Z,99.90
2024-05-09T03:15:36.597Z,99.90
2024-05-09T03:18:05.400Z,99.90
2024-05-09T03:20:35.150Z,99.90
2024-05-09T03:23:04.543Z,99.90
2024-05-09T03:25:31.863Z,99.90
2024-05-09T03:27:59.432Z,99.90
2024-05-09T03:30:38.639Z,99.90
2024-05-09T03:33:15.575Z,99.90
2024-05-09T03:35:44.188Z,99.90
2024-05-09T03:38:11.323Z,99.90
2024-05-09T03:40:45.510Z,99.90
2024-05-09T03:43:13.353Z,99.90
2024-05-09T03:45:40.340Z,99.90
2024-05-09T03:48:08.491Z,99.90
2024-05-09T03:50:36.852Z,99.90
2024-05-09T03:53:05.019Z,99.90
2024-05-09T03:55:32.363Z,99.90
2024-05-09T03:57:59.774Z,99.90
2024-05-09T04:00:35.178Z,99.90
2024-05-09T04:03:08.952Z,99.90
2024-05-09T04:05:40.686Z,99.90
2024-05-09T04:08:09.111Z,99.90
2024-05-09T04:10:36.201Z,99.90
2024-05-09T04:13:04.098Z,99.90
2024-05-09T04:15:32.242Z,99.90
2024-05-09T04:18:00.017Z,99.90
2024-05-09T04:20:36.849Z,99.90
2024-05-09T04:23:08.902Z,99.90
2024-05-09T04:25:37.766Z,99.90
2024-05-09T04:28:05.534Z,99.90
2024-05-09T04:30:38.623Z,99.90
2024-05-09T04:33:11.410Z,99.90
2024-05-09T04:35:42.630Z,99.90
2024-05-09T04:38:10.298Z,99.90
2024-05-09T04:40:37.944Z,99.90
2024-05-09T04:43:06.991Z,99.90
2024-05-09T04:45:34.945Z,99.90
2024-05-09T04:48:02.620Z,99.90
2024-05-09T04:50:36.624Z,99.90
2024-05-09T04:53:07.776Z,99.90
2024-05-09T04:55:36.564Z,99.90
2024-05-09T04:58:03.724Z,99.90
2024-05-09T05:00:36.408Z,99.90
2024-05-09T05:03:09.310Z,99.90
2024-05-09T05:05:40.447Z,99.90
2024-05-09T05:08:12.377Z,99.90
2024-05-09T05:10:40.016Z,99.90
2024-05-09T05:13:17.222Z,99.90
2024-05-09T05:15:52.141Z,99.90
2024-05-09T05:18:19.782Z,99.90
2024-05-09T05:20:47.983Z,99.90
2024-05-09T05:23:19.603Z,99.90
2024-05-09T05:25:48.512Z,99.90
2024-05-09T05:28:19.210Z,99.90
2024-05-09T05:30:46.594Z,99.90
2024-05-09T05:33:15.297Z,99.90
2024-05-09T05:35:43.276Z,99.90
2024-05-09T05:38:11.242Z,99.90
2024-05-09T05:40:39.780Z,99.90
2024-05-09T05:43:09.251Z,99.90
2024-05-09T05:45:36.708Z,99.90
2024-05-09T05:48:06.075Z,99.90
2024-05-09T05:50:36.806Z,99.90
2024-05-09T05:53:09.846Z,99.90
2024-05-09T05:55:41.059Z,99.90
2024-05-09T05:58:12.122Z,99.90
2024-05-09T06:00:42.107Z,99.90
2024-05-09T06:03:11.669Z,99.90
2024-05-09T06:05:47.798Z,99.90
2024-05-09T06:08:15.006Z,99.90
2024-05-09T06:10:42.559Z,99.90
2024-05-09T06:13:14.149Z,99.90
2024-05-09T06:15:41.902Z,99.90
2024-05-09T06:18:11.143Z,99.90
2024-05-09T06:20:42.372Z,99.90
2024-05-09T06:23:10.744Z,99.90
2024-05-09T06:25:38.526Z,99.90
2024-05-09T06:28:06.073Z,99.90
2024-05-09T06:33:06.670Z,99.90
2024-05-09T06:35:34.226Z,99.90
2024-05-09T06:38:01.703Z,99.90
2024-05-09T06:40:36.860Z,99.90
2024-05-09T06:43:18.010Z,99.90
2024-05-09T06:45:52.839Z,99.90
2024-05-09T06:48:21.473Z,99.90
2024-05-09T06:50:49.458Z,99.90
2024-05-09T06:53:17.958Z,99.90
2024-05-09T06:55:45.159Z,99.90
2024-05-09T06:58:12.306Z,99.90
2024-05-09T07:00:41.362Z,99.90
2024-05-09T07:03:11.543Z,99.90
2024-05-09T07:05:40.256Z,99.90
2024-05-09T07:08:08.179Z,99.90
2024-05-09T07:10:36.521Z,99.90
2024-05-09T07:13:11.615Z,99.90
2024-05-09T07:15:39.699Z,99.90
2024-05-09T07:18:18.591Z,99.90
2024-05-09T07:20:47.754Z,99.90
2024-05-09T07:23:16.102Z,99.90
2024-05-09T07:25:43.657Z,99.90
2024-05-09T07:28:19.188Z,99.90
2024-05-09T07:30:46.756Z,99.90
2024-05-09T07:33:18.077Z,99.90
2024-05-09T07:35:45.781Z,99.90
2024-05-09T07:38:13.284Z,99.90
2024-05-09T07:40:41.700Z,99.90
2024-05-09T07:43:11.825Z,99.90
2024-05-09T07:45:48.759Z,99.90
2024-05-09T07:52:38.748Z,99.90
2024-05-09T07:53:49.972Z,99.90
2024-05-09T07:56:21.978Z,99.90
2024-05-09T07:58:52.031Z,99.90
2024-05-09T08:01:20.054Z,99.90
2024-05-09T08:03:49.160Z,99.90
2024-05-09T08:06:16.484Z,99.90
2024-05-09T08:08:43.542Z,99.90
2024-05-09T08:11:10.623Z,99.90
2024-05-09T08:13:37.664Z,99.90
2024-05-09T08:16:05.254Z,99.90
2024-05-09T08:18:32.681Z,99.90
2024-05-09T08:21:00.102Z,99.90
2024-05-09T08:23:28.589Z,99.90
2024-05-09T08:25:55.643Z,99.90
2024-05-09T08:28:22.811Z,99.90
2024-05-09T08:30:50.083Z,99.90
2024-05-09T08:33:17.287Z,99.90
2024-05-09T08:35:44.432Z,99.90
2024-05-09T08:38:11.595Z,99.90
2024-05-09T08:40:39.012Z,99.90
2024-05-09T08:43:11.827Z,99.90
2024-05-09T08:45:44.206Z,99.90
2024-05-09T08:48:14.779Z,99.90
2024-05-09T08:50:44.761Z,99.90
2024-05-09T08:53:14.497Z,99.90
2024-05-09T08:55:43.471Z,99.90
2024-05-09T08:58:20.663Z,99.90
2024-05-09T09:00:49.338Z,99.90
2024-05-09T09:03:24.997Z,99.90
2024-05-09T09:05:59.013Z,99.90
2024-05-09T09:08:26.489Z,99.90
2024-05-09T09:10:57.618Z,99.90
2024-05-09T09:13:25.554Z,99.90
2024-05-09T09:15:57.544Z,99.90
2024-05-09T09:18:26.622Z,99.90
2024-05-09T09:20:54.754Z,99.90
2024-05-09T09:23:22.167Z,99.90
2024-05-09T09:25:49.727Z,99.90
2024-05-09T09:28:16.849Z,99.90
2024-05-09T09:30:44.212Z,99.90
2024-05-09T09:33:12.264Z,99.90
2024-05-09T09:35:40.490Z,99.90
2024-05-09T09:38:10.068Z,99.50
2024-05-09T09:40:45.778Z,99.70
2024-05-09T09:43:21.392Z,98.30
2024-05-09T09:45:51.246Z,98.90
2024-05-09T09:48:19.824Z,98.30
2024-05-09T09:50:47.359Z,97.40
2024-05-09T09:53:14.434Z,97.40
2024-05-09T09:55:41.773Z,97.10
2024-05-09T09:58:12.128Z,96.00
2024-05-09T10:00:41.823Z,96.30
2024-05-09T10:03:09.233Z,96.90
2024-05-09T10:05:36.842Z,95.30
2024-05-09T10:08:06.609Z,95.80
2024-05-09T10:10:34.617Z,94.20
2024-05-09T10:13:05.426Z,95.60
2024-05-09T10:16:09.265Z,94.80
2024-05-09T10:18:39.966Z,95.50
2024-05-09T10:21:19.750Z,94.80
2024-05-09T10:24:02.916Z,94.30
2024-05-09T10:26:36.655Z,95.10
2024-05-09T10:29:12.761Z,95.20
2024-05-09T10:31:44.071Z,94.10
2024-05-09T10:34:24.009Z,95.10
2024-05-09T10:36:52.305Z,95.40
2024-05-09T10:39:20.265Z,94.90
2024-05-09T10:41:49.048Z,97.00
2024-05-09T10:44:16.364Z,95.90
2024-05-09T10:46:44.234Z,94.80
2024-05-09T10:49:13.499Z,94.60
2024-05-09T10:51:41.750Z,94.30
2024-05-09T10:54:08.694Z,93.50
2024-05-09T10:56:35.626Z,93.50
2024-05-09T10:59:05.803Z,95.60
2024-05-09T11:01:33.012Z,96.20
2024-05-09T11:04:00.238Z,94.50
2024-05-09T11:06:27.592Z,92.20
2024-05-09T11:08:56.077Z,92.30
2024-05-09T11:11:23.110Z,92.60
2024-05-09T11:13:50.105Z,91.50
2024-05-09T11:16:21.337Z,92.30
2024-05-09T11:18:56.294Z,90.80
2024-05-09T11:21:24.475Z,90.90
2024-05-09T11:23:52.146Z,90.60
2024-05-09T11:26:21.585Z,91.40
2024-05-09T11:28:50.484Z,91.80
2024-05-09T11:31:18.060Z,92.70
2024-05-09T11:33:45.837Z,92.50
2024-05-09T11:36:13.461Z,90.50
2024-05-09T11:38:41.074Z,90.30
2024-05-09T11:41:08.243Z,90.30
2024-05-09T11:43:35.432Z,90.10
2024-05-09T11:46:03.833Z,90.90
2024-05-09T11:48:31.676Z,89.30
2024-05-09T11:50:59.084Z,86.90
2024-05-09T11:53:26.293Z,86.00
2024-05-09T11:55:53.480Z,85.90
2024-05-09T11:58:22.873Z,83.80
2024-05-09T12:00:50.350Z,82.60
2024-05-09T12:03:17.592Z,87.90
2024-05-09T12:05:45.061Z,89.80
2024-05-09T12:08:12.489Z,88.00
2024-05-09T12:10:39.879Z,85.90
2024-05-09T12:13:07.938Z,86.00
2024-05-09T12:15:39.026Z,82.90
2024-05-09T12:18:08.020Z,86.40
2024-05-09T12:20:38.735Z,85.10
2024-05-09T12:23:09.663Z,83.30
2024-05-09T12:25:38.611Z,81.90
2024-05-09T12:28:06.694Z,81.30
2024-05-09T12:30:38.318Z,82.00
2024-05-09T12:33:12.694Z,80.10
2024-05-09T12:35:43.456Z,81.80
2024-05-09T12:38:13.464Z,82.90
2024-05-09T12:40:40.541Z,80.50
2024-05-09T12:43:08.887Z,77.40
2024-05-09T12:45:37.483Z,77.80
2024-05-09T12:48:07.557Z,75.80
2024-05-09T12:50:35.448Z,75.50
2024-05-09T12:53:04.123Z,72.90
2024-05-09T12:55:40.618Z,76.30
2024-05-09T12:58:16.987Z,75.50
2024-05-09T13:00:45.066Z,74.70
2024-05-09T13:03:12.475Z,75.70
2024-05-09T13:05:44.812Z,71.90
2024-05-09T13:08:13.264Z,69.70
2024-05-09T13:10:40.583Z,73.20
2024-05-09T13:13:09.743Z,72.50
2024-05-09T13:15:39.673Z,70.00
2024-05-09T13:18:07.437Z,73.30
2024-05-09T13:20:36.435Z,72.20
2024-05-09T13:23:08.204Z,68.80
2024-05-09T13:25:37.690Z,69.60
2024-05-09T13:28:06.343Z,68.90
2024-05-09T13:30:39.360Z,67.80
2024-05-09T13:33:13.676Z,67.70
2024-05-09T13:35:47.047Z,68.60
2024-05-09T13:38:18.507Z,69.20
2024-05-09T13:40:45.917Z,68.30
2024-05-09T13:43:13.587Z,69.70
2024-05-09T13:45:40.821Z,68.80
2024-05-09T13:48:09.792Z,68.00
2024-05-09T13:50:37.472Z,67.50
2024-05-09T13:53:06.484Z,65.70
2024-05-09T13:55:35.472Z,62.60
2024-05-09T13:58:03.189Z,63.10
2024-05-09T14:00:42.319Z,64.60
2024-05-09T14:03:15.891Z,63.60
2024-05-09T14:05:43.576Z,62.20
2024-05-09T14:08:11.587Z,63.40
2024-05-09T14:10:44.642Z,64.70
2024-05-09T14:13:13.226Z,60.30
2024-05-09T14:15:41.086Z,63.00
2024-05-09T14:18:12.211Z,61.70
2024-05-09T14:20:41.102Z,62.30
2024-05-09T14:23:08.120Z,59.70
2024-05-09T14:25:38.962Z,61.70
2024-05-09T14:28:09.320Z,63.10
2024-05-09T14:30:38.127Z,62.00
2024-05-09T14:33:07.459Z,64.20
2024-05-09T14:35:35.824Z,61.50
2024-05-09T14:38:03.487Z,62.60
2024-05-09T14:40:40.459Z,61.00
2024-05-09T14:43:14.717Z,61.20
2024-05-09T14:45:42.464Z,61.00
2024-05-09T14:48:10.408Z,64.30
2024-05-09T14:50:39.589Z,64.30
2024-05-09T14:53:11.198Z,63.40
2024-05-09T14:55:40.649Z,61.80
2024-05-09T14:58:09.722Z,62.50
2024-05-09T15:00:39.459Z,63.70
2024-05-09T15:03:09.030Z,62.50
2024-05-09T15:05:36.048Z,62.20
2024-05-09T15:08:05.477Z,62.80
2024-05-09T15:10:35.653Z,62.10
2024-05-09T15:13:04.291Z,61.20
2024-05-09T15:15:31.861Z,61.20
2024-05-09T15:17:59.782Z,63.40
2024-05-09T15:20:33.945Z,63.40
2024-05-09T15:23:03.714Z,65.40
2024-05-09T15:25:30.991Z,68.10
2024-05-09T15:27:58.116Z,69.00
2024-05-09T15:32:55.228Z,65.20
2024-05-09T15:35:22.300Z,65.40
2024-05-09T15:37:49.332Z,65.60
2024-05-09T15:40:26.093Z,63.10
2024-05-09T15:43:02.438Z,63.10
2024-05-09T15:45:29.693Z,63.30
2024-05-09T15:47:57.820Z,63.40
2024-05-09T15:50:35.138Z,63.10
2024-05-09T15:53:06.695Z,61.80
2024-05-09T15:55:34.695Z,59.70
2024-05-09T15:58:02.258Z,61.40
2024-05-09T16:00:37.346Z,62.60
2024-05-09T16:03:08.315Z,63.60
2024-05-09T16:05:35.444Z,62.40
2024-05-09T16:08:02.569Z,63.90
2024-05-09T16:10:32.939Z,64.60
2024-05-09T16:13:02.072Z,65.10
2024-05-09T16:15:29.488Z,63.10
2024-05-09T16:17:56.626Z,65.10
2024-05-09T16:22:54.491Z,64.50
2024-05-09T16:25:21.517Z,65.70
2024-05-09T16:27:50.178Z,64.50
2024-05-09T16:30:24.763Z,63.40
2024-05-09T16:32:58.820Z,64.80
2024-05-09T16:35:25.738Z,66.20
2024-05-09T16:37:52.743Z,66.50
2024-05-09T16:40:29.299Z,66.70
2024-05-09T16:43:03.658Z,65.00
2024-05-09T16:45:30.762Z,66.70
2024-05-09T16:47:59.660Z,65.10
2024-05-09T16:50:32.400Z,66.50
2024-05-09T16:53:02.101Z,65.20
2024-05-09T16:55:29.183Z,65.00
2024-05-09T16:57:56.786Z,65.70
2024-05-09T17:00:35.163Z,65.20
2024-05-09T17:03:08.937Z,64.90
2024-05-09T17:05:36.647Z,67.00
2024-05-09T17:08:04.206Z,66.80
2024-05-09T17:10:33.884Z,64.00
2024-05-09T17:13:03.209Z,65.40
2024-05-09T17:15:31.704Z,65.80
2024-05-09T17:17:58.947Z,68.00
2024-05-09T17:20:32.441Z,70.80
2024-05-09T17:23:03.179Z,75.40
2024-05-09T17:25:30.214Z,76.80
2024-05-09T17:27:59.641Z,80.50
2024-05-09T17:30:32.518Z,83.70
2024-05-09T17:33:05.133Z,86.20
2024-05-09T17:35:32.540Z,86.70
2024-05-09T17:38:01.577Z,88.40
2024-05-09T17:40:33.663Z,90.00
2024-05-09T17:43:04.898Z,91.20
2024-05-09T17:45:32.752Z,90.70
2024-05-09T17:48:00.440Z,90.70
2024-05-09T17:50:34.976Z,91.90
2024-05-09T17:53:08.505Z,91.20
2024-05-09T17:55:36.524Z,92.20
2024-05-09T17:58:04.845Z,93.60
2024-05-09T18:00:38.248Z,95.20
2024-05-09T18:03:11.659Z,95.60
2024-05-09T18:05:39.936Z,97.00
2024-05-09T18:08:08.116Z,96.80
2024-05-09T18:10:38.755Z,98.70
2024-05-09T18:13:08.463Z,97.90
2024-05-09T18:15:36.025Z,99.80
2024-05-09T18:18:03.995Z,99.60
2024-05-09T18:20:40.925Z,99.90
2024-05-09T18:23:13.478Z,99.90
2024-05-09T18:25:41.082Z,99.90
2024-05-09T18:28:08.602Z,99.90
2024-05-09T18:30:37.204Z,99.90
2024-05-09T18:33:07.740Z,99.90
2024-05-09T18:35:36.394Z,99.90
2024-05-09T18:38:04.055Z,99.90
2024-05-09T18:40:35.144Z,99.90
2024-05-09T18:43:07.247Z,99.90
2024-05-09T18:45:39.869Z,99.90
2024-05-09T18:48:09.153Z,99.90
2024-05-09T18:50:39.626Z,99.90
2024-05-09T18:53:10.574Z,99.90
2024-05-09T18:55:38.405Z,99.90
2024-05-09T18:58:05.694Z,99.90
2024-05-09T19:00:36.591Z,99.90
2024-05-09T19:03:09.568Z,99.90
2024-05-09T19:05:39.538Z,99.90
2024-05-09T19:08:08.198Z,99.90
2024-05-09T19:10:37.264Z,99.90
2024-05-09T19:13:09.066Z,99.90
2024-05-09T19:15:40.274Z,99.90
2024-05-09T19:18:08.174Z,99.90
2024-05-09T19:20:36.727Z,99.90
2024-05-09T19:23:06.833Z,99.90
2024-05-09T19:25:34.945Z,99.90
2024-05-09T19:28:03.028Z,99.90
2024-05-09T19:30:38.094Z,99.90
2024-05-09T19:33:09.579Z,99.90
2024-05-09T19:35:37.506Z,99.90
2024-05-09T19:38:05.355Z,99.90
2024-05-09T19:40:34.138Z,99.90
2024-05-09T19:43:03.214Z,99.90
2024-05-09T19:45:32.356Z,99.90
2024-05-09T19:47:59.650Z,99.90
2024-05-09T19:50:35.680Z,99.90
2024-05-09T19:53:08.682Z,99.90
2024-05-09T19:55:35.863Z,99.90
2024-05-09T19:58:05.455Z,99.90
2024-05-09T20:00:40.080Z,99.90
2024-05-09T20:03:10.118Z,99.90
2024-05-09T20:05:38.508Z,99.90
2024-05-09T20:08:06.689Z,99.90
2024-05-09T20:10:35.709Z,99.90
2024-05-09T20:13:06.207Z,99.90
2024-05-09T20:15:35.743Z,99.90
2024-05-09T20:18:03.394Z,99.90
2024-05-09T20:20:37.522Z,99.90
2024-05-09T20:23:09.217Z,99.90
2024-05-09T20:25:36.796Z,99.90
2024-05-09T20:28:04.349Z,99.90
2024-05-09T20:30:34.191Z,99.90
2024-05-09T20:33:04.337Z,99.90
2024-05-09T20:35:33.234Z,99.90
2024-05-09T20:38:01.556Z,99.90
2024-05-09T20:40:33.894Z,99.90
2024-05-09T20:43:04.844Z,99.90
2024-05-09T20:45:32.094Z,99.90
2024-05-09T20:47:59.484Z,99.90
2024-05-09T20:50:35.941Z,99.90
2024-05-09T20:53:09.421Z,99.90
2024-05-09T20:55:37.005Z,99.90
2024-05-09T20:58:04.591Z,99.90
2024-05-09T21:00:39.780Z,99.90
2024-05-09T21:03:11.388Z,99.90
2024-05-09T21:05:39.181Z,99.90
2024-05-09T21:08:06.926Z,99.90
2024-05-09T21:10:35.887Z,99.90
2024-05-09T21:13:03.935Z,99.90
2024-05-09T21:15:31.996Z,99.90
2024-05-09T21:17:59.445Z,99.90
2024-05-09T21:22:57.636Z,99.90
2024-05-09T21:25:24.821Z,99.90
2024-05-09T21:27:52.082Z,99.90
2024-05-09T21:30:28.445Z,99.90
2024-05-09T21:33:05.687Z,99.90
2024-05-09T21:35:32.814Z,99.90
2024-05-09T21:37:59.890Z,99.90
2024-05-09T21:40:33.812Z,99.90
2024-05-09T21:43:03.501Z,99.90
2024-05-09T21:45:30.636Z,99.90
2024-05-09T21:47:57.848Z,99.90
2024-05-09T21:50:32.301Z,99.90
2024-05-09T21:53:07.000Z,99.90
2024-05-09T21:55:34.332Z,99.90
2024-05-09T21:58:01.741Z,99.90
2024-05-09T22:00:35.743Z,99.90
2024-05-09T22:03:06.713Z,99.90
2024-05-09T22:05:34.758Z,99.90
2024-05-09T22:08:02.267Z,99.90
2024-05-09T22:10:34.190Z,99.90
2024-05-09T22:13:06.906Z,99.90
2024-05-09T22:15:37.021Z,99.90
2024-05-09T22:18:05.839Z,99.90
2024-05-09T22:20:37.864Z,99.90
2024-05-09T22:23:07.677Z,99.90
2024-05-09T22:25:35.661Z,99.90
2024-05-09T22:28:03.330Z,99.90
2024-05-09T22:30:35.984Z,99.90
2024-05-09T22:33:10.753Z,99.90
2024-05-09T22:35:39.582Z,99.90
2024-05-09T22:38:06.870Z,99.90
2024-05-09T22:40:43.378Z,99.90
2024-05-09T22:43:21.090Z,99.90
2024-05-09T22:45:50.288Z,99.90
2024-05-09T22:48:18.093Z,99.90
2024-05-09T22:50:45.347Z,99.90
2024-05-09T22:53:12.337Z,99.90
2024-05-09T22:55:39.403Z,99.90
2024-05-09T22:58:06.598Z,99.90
2024-05-09T23:00:33.873Z,99.90
2024-05-09T23:03:02.271Z,99.90
2024-05-09T23:05:30.729Z,99.90
2024-05-09T23:07:58.250Z,99.90
2024-05-09T23:10:32.420Z,99.90
2024-05-09T23:13:04.120Z,99.90
2024-05-09T23:15:31.367Z,99.90
2024-05-09T23:17:58.992Z,99.90
2024-05-09T23:20:33.754Z,99.90
2024-05-09T23:23:06.437Z,99.90
2024-05-09T23:25:33.960Z,99.90
2024-05-09T23:28:01.253Z,99.90
2024-05-09T23:30:34.878Z,99.90
2024-05-09T23:33:06.408Z,99.90
2024-05-09T23:35:33.610Z,99.90
2024-05-09T23:38:00.768Z,99.90
2024-05-09T23:40:37.479Z,99.90
2024-05-09T23:43:08.588Z,99.90
2024-05-09T23:45:36.065Z,99.90
2024-05-09T23:48:03.699Z,99.90
2024-05-09T23:50:35.417Z,99.90
2024-05-09T23:53:06.193Z,99.90
2024-05-09T23:55:34.100Z,99.90
2024-05-09T23:58:01.345Z,99.90
